sensor_id;sensor_type;location;lat;lon;timestamp;P1;durP1;ratioP1;P2;durP2;ratioP2
13102;SDS011;52970;46.752;17.108;2022-11-20T00:01:29;43.67;;;24.90;;
13102;SDS011;52970;46.752;17.108;2022-11-20T00:03:55;38.33;;;23.13;;
13102;SDS011;52970;46.752;17.108;2022-11-20T00:06:21;42.80;;;24.93;;
13102;SDS011;52970;46.752;17.108;2022-11-20T00:08:46;41.83;;;24.80;;
13102;SDS011;52970;46.752;17.108;2022-11-20T00:11:12;38.33;;;23.70;;
13102;SDS011;52970;46.752;17.108;2022-11-20T00:13:38;38.80;;;23.60;;
13102;SDS011;52970;46.752;17.108;2022-11-20T00:16:04;40.03;;;24.33;;
13102;SDS011;52970;46.752;17.108;2022-11-20T00:18:30;42.53;;;24.53;;
13102;SDS011;52970;46.752;17.108;2022-11-20T00:21:03;40.60;;;25.03;;
13102;SDS011;52970;46.752;17.108;2022-11-20T00:23:28;39.10;;;23.40;;
13102;SDS011;52970;46.752;17.108;2022-11-20T00:25:53;38.77;;;23.47;;
13102;SDS011;52970;46.752;17.108;2022-11-20T00:28:18;36.43;;;22.20;;
13102;SDS011;52970;46.752;17.108;2022-11-20T00:30:44;41.87;;;24.17;;
13102;SDS011;52970;46.752;17.108;2022-11-20T00:33:09;37.40;;;23.07;;
13102;SDS011;52970;46.752;17.108;2022-11-20T00:35:34;37.20;;;24.20;;
13102;SDS011;52970;46.752;17.108;2022-11-20T00:38:00;37.93;;;24.27;;
13102;SDS011;52970;46.752;17.108;2022-11-20T00:40:25;38.27;;;23.30;;
13102;SDS011;52970;46.752;17.108;2022-11-20T00:42:50;38.73;;;23.40;;
13102;SDS011;52970;46.752;17.108;2022-11-20T00:45:15;38.73;;;24.40;;
13102;SDS011;52970;46.752;17.108;2022-11-20T00:47:40;35.37;;;22.97;;
13102;SDS011;52970;46.752;17.108;2022-11-20T00:50:06;37.90;;;23.00;;
13102;SDS011;52970;46.752;17.108;2022-11-20T00:52:31;35.37;;;21.73;;
13102;SDS011;52970;46.752;17.108;2022-11-20T00:54:56;36.47;;;23.30;;
13102;SDS011;52970;46.752;17.108;2022-11-20T00:57:21;35.10;;;22.20;;
13102;SDS011;52970;46.752;17.108;2022-11-20T00:59:47;35.43;;;21.93;;
13102;SDS011;52970;46.752;17.108;2022-11-20T01:02:12;38.37;;;24.20;;
13102;SDS011;52970;46.752;17.108;2022-11-20T01:04:37;39.57;;;22.30;;
13102;SDS011;52970;46.752;17.108;2022-11-20T01:07:02;36.87;;;22.80;;
13102;SDS011;52970;46.752;17.108;2022-11-20T01:09:28;35.10;;;21.83;;
13102;SDS011;52970;46.752;17.108;2022-11-20T01:11:53;37.30;;;23.40;;
13102;SDS011;52970;46.752;17.108;2022-11-20T01:14:19;34.70;;;22.47;;
13102;SDS011;52970;46.752;17.108;2022-11-20T01:16:45;35.60;;;21.63;;
13102;SDS011;52970;46.752;17.108;2022-11-20T01:19:12;32.77;;;20.43;;
13102;SDS011;52970;46.752;17.108;2022-11-20T01:21:38;35.67;;;21.80;;
13102;SDS011;52970;46.752;17.108;2022-11-20T01:24:04;34.47;;;22.93;;
13102;SDS011;52970;46.752;17.108;2022-11-20T01:26:31;35.90;;;22.57;;
13102;SDS011;52970;46.752;17.108;2022-11-20T01:28:57;36.27;;;22.70;;
13102;SDS011;52970;46.752;17.108;2022-11-20T01:31:26;37.33;;;22.13;;
13102;SDS011;52970;46.752;17.108;2022-11-20T01:33:53;35.60;;;22.50;;
13102;SDS011;52970;46.752;17.108;2022-11-20T01:36:19;40.13;;;23.03;;
13102;SDS011;52970;46.752;17.108;2022-11-20T01:38:44;35.37;;;22.30;;
13102;SDS011;52970;46.752;17.108;2022-11-20T01:41:10;35.83;;;22.17;;
13102;SDS011;52970;46.752;17.108;2022-11-20T01:43:56;36.57;;;21.93;;
13102;SDS011;52970;46.752;17.108;2022-11-20T01:46:21;34.27;;;22.33;;
13102;SDS011;52970;46.752;17.108;2022-11-20T01:53:56;33.07;;;21.33;;
13102;SDS011;52970;46.752;17.108;2022-11-20T01:56:22;33.93;;;21.40;;
13102;SDS011;52970;46.752;17.108;2022-11-20T01:58:49;35.03;;;23.00;;
13102;SDS011;52970;46.752;17.108;2022-11-20T02:01:15;34.00;;;20.63;;
13102;SDS011;52970;46.752;17.108;2022-11-20T02:03:41;34.77;;;21.73;;
13102;SDS011;52970;46.752;17.108;2022-11-20T02:06:10;36.03;;;22.90;;
13102;SDS011;52970;46.752;17.108;2022-11-20T02:08:37;38.50;;;22.53;;
13102;SDS011;52970;46.752;17.108;2022-11-20T02:11:02;38.87;;;23.60;;
13102;SDS011;52970;46.752;17.108;2022-11-20T02:13:28;40.57;;;23.97;;
13102;SDS011;52970;46.752;17.108;2022-11-20T02:16:13;40.57;;;23.60;;
13102;SDS011;52970;46.752;17.108;2022-11-20T02:18:39;35.90;;;22.70;;
13102;SDS011;52970;46.752;17.108;2022-11-20T02:21:09;39.80;;;25.17;;
13102;SDS011;52970;46.752;17.108;2022-11-20T02:26:21;37.00;;;24.20;;
13102;SDS011;52970;46.752;17.108;2022-11-20T02:28:48;38.73;;;24.07;;
13102;SDS011;52970;46.752;17.108;2022-11-20T02:31:13;37.40;;;23.13;;
13102;SDS011;52970;46.752;17.108;2022-11-20T02:33:38;40.23;;;24.70;;
13102;SDS011;52970;46.752;17.108;2022-11-20T02:36:04;40.43;;;25.13;;
13102;SDS011;52970;46.752;17.108;2022-11-20T02:38:29;36.77;;;23.33;;
13102;SDS011;52970;46.752;17.108;2022-11-20T02:40:54;37.90;;;23.13;;
13102;SDS011;52970;46.752;17.108;2022-11-20T02:43:19;38.43;;;23.37;;
13102;SDS011;52970;46.752;17.108;2022-11-20T02:45:44;38.30;;;24.50;;
13102;SDS011;52970;46.752;17.108;2022-11-20T02:48:10;39.70;;;24.63;;
13102;SDS011;52970;46.752;17.108;2022-11-20T02:50:38;42.57;;;24.40;;
13102;SDS011;52970;46.752;17.108;2022-11-20T02:53:04;34.93;;;22.03;;
13102;SDS011;52970;46.752;17.108;2022-11-20T02:55:29;37.20;;;23.63;;
13102;SDS011;52970;46.752;17.108;2022-11-20T02:57:55;43.00;;;24.33;;
13102;SDS011;52970;46.752;17.108;2022-11-20T03:00:20;38.97;;;24.40;;
13102;SDS011;52970;46.752;17.108;2022-11-20T03:02:45;40.10;;;25.10;;
13102;SDS011;52970;46.752;17.108;2022-11-20T03:05:11;36.03;;;23.13;;
13102;SDS011;52970;46.752;17.108;2022-11-20T03:07:36;37.17;;;22.90;;
13102;SDS011;52970;46.752;17.108;2022-11-20T03:10:01;37.37;;;22.67;;
13102;SDS011;52970;46.752;17.108;2022-11-20T03:12:26;35.83;;;22.73;;
13102;SDS011;52970;46.752;17.108;2022-11-20T03:14:52;39.67;;;22.90;;
13102;SDS011;52970;46.752;17.108;2022-11-20T03:17:17;37.00;;;23.07;;
13102;SDS011;52970;46.752;17.108;2022-11-20T03:19:42;37.83;;;24.03;;
13102;SDS011;52970;46.752;17.108;2022-11-20T03:22:07;36.93;;;22.33;;
13102;SDS011;52970;46.752;17.108;2022-11-20T03:24:33;37.67;;;23.40;;
13102;SDS011;52970;46.752;17.108;2022-11-20T03:26:58;38.67;;;23.60;;
13102;SDS011;52970;46.752;17.108;2022-11-20T03:29:23;38.40;;;22.53;;
13102;SDS011;52970;46.752;17.108;2022-11-20T03:31:48;34.43;;;22.10;;
13102;SDS011;52970;46.752;17.108;2022-11-20T03:34:14;37.17;;;23.70;;
13102;SDS011;52970;46.752;17.108;2022-11-20T03:36:40;35.53;;;21.93;;
13102;SDS011;52970;46.752;17.108;2022-11-20T03:39:05;37.07;;;23.37;;
13102;SDS011;52970;46.752;17.108;2022-11-20T03:41:34;35.60;;;22.67;;
13102;SDS011;52970;46.752;17.108;2022-11-20T03:44:01;36.33;;;22.23;;
13102;SDS011;52970;46.752;17.108;2022-11-20T03:46:27;35.83;;;21.77;;
13102;SDS011;52970;46.752;17.108;2022-11-20T03:48:52;37.60;;;23.77;;
13102;SDS011;52970;46.752;17.108;2022-11-20T03:51:19;35.90;;;22.77;;
13102;SDS011;52970;46.752;17.108;2022-11-20T03:53:44;37.97;;;21.87;;
13102;SDS011;52970;46.752;17.108;2022-11-20T03:56:11;35.90;;;23.13;;
13102;SDS011;52970;46.752;17.108;2022-11-20T03:58:37;34.67;;;22.23;;
13102;SDS011;52970;46.752;17.108;2022-11-20T04:03:32;34.63;;;22.97;;
13102;SDS011;52970;46.752;17.108;2022-11-20T04:06:02;35.70;;;22.13;;
13102;SDS011;52970;46.752;17.108;2022-11-20T04:08:28;35.43;;;21.47;;
13102;SDS011;52970;46.752;17.108;2022-11-20T04:10:54;34.57;;;21.83;;
13102;SDS011;52970;46.752;17.108;2022-11-20T04:13:19;32.77;;;21.40;;
13102;SDS011;52970;46.752;17.108;2022-11-20T04:15:44;34.47;;;21.20;;
13102;SDS011;52970;46.752;17.108;2022-11-20T04:18:09;37.87;;;22.50;;
13102;SDS011;52970;46.752;17.108;2022-11-20T04:20:35;35.37;;;22.60;;
13102;SDS011;52970;46.752;17.108;2022-11-20T04:23:00;33.90;;;22.20;;
13102;SDS011;52970;46.752;17.108;2022-11-20T04:25:25;36.17;;;21.97;;
13102;SDS011;52970;46.752;17.108;2022-11-20T04:27:50;34.27;;;22.40;;
13102;SDS011;52970;46.752;17.108;2022-11-20T04:30:16;35.70;;;21.13;;
13102;SDS011;52970;46.752;17.108;2022-11-20T04:32:41;38.10;;;22.03;;
13102;SDS011;52970;46.752;17.108;2022-11-20T04:35:06;34.93;;;20.83;;
13102;SDS011;52970;46.752;17.108;2022-11-20T04:37:31;34.83;;;22.00;;
13102;SDS011;52970;46.752;17.108;2022-11-20T04:39:57;33.43;;;21.60;;
13102;SDS011;52970;46.752;17.108;2022-11-20T04:42:22;35.63;;;21.60;;
13102;SDS011;52970;46.752;17.108;2022-11-20T04:44:53;37.40;;;22.63;;
13102;SDS011;52970;46.752;17.108;2022-11-20T04:47:18;31.90;;;20.93;;
13102;SDS011;52970;46.752;17.108;2022-11-20T04:49:43;35.70;;;22.87;;
13102;SDS011;52970;46.752;17.108;2022-11-20T04:52:09;35.83;;;21.90;;
13102;SDS011;52970;46.752;17.108;2022-11-20T04:54:34;33.73;;;21.50;;
13102;SDS011;52970;46.752;17.108;2022-11-20T04:56:59;33.60;;;21.50;;
13102;SDS011;52970;46.752;17.108;2022-11-20T04:59:24;35.00;;;22.03;;
13102;SDS011;52970;46.752;17.108;2022-11-20T05:01:49;37.17;;;22.20;;
13102;SDS011;52970;46.752;17.108;2022-11-20T05:04:15;34.67;;;22.33;;
13102;SDS011;52970;46.752;17.108;2022-11-20T05:06:40;35.77;;;21.70;;
13102;SDS011;52970;46.752;17.108;2022-11-20T05:09:05;35.37;;;22.73;;
13102;SDS011;52970;46.752;17.108;2022-11-20T05:11:31;34.73;;;21.53;;
13102;SDS011;52970;46.752;17.108;2022-11-20T05:13:58;35.33;;;22.57;;
13102;SDS011;52970;46.752;17.108;2022-11-20T05:16:23;36.13;;;22.33;;
13102;SDS011;52970;46.752;17.108;2022-11-20T05:18:49;35.57;;;22.37;;
13102;SDS011;52970;46.752;17.108;2022-11-20T05:21:15;33.23;;;21.03;;
13102;SDS011;52970;46.752;17.108;2022-11-20T05:23:41;39.67;;;23.53;;
13102;SDS011;52970;46.752;17.108;2022-11-20T05:26:07;37.83;;;21.57;;
13102;SDS011;52970;46.752;17.108;2022-11-20T05:28:33;34.33;;;21.63;;
13102;SDS011;52970;46.752;17.108;2022-11-20T05:31:08;36.87;;;21.43;;
13102;SDS011;52970;46.752;17.108;2022-11-20T05:33:34;35.80;;;22.00;;
13102;SDS011;52970;46.752;17.108;2022-11-20T05:36:00;33.63;;;21.40;;
13102;SDS011;52970;46.752;17.108;2022-11-20T05:38:25;33.00;;;21.20;;
13102;SDS011;52970;46.752;17.108;2022-11-20T05:40:50;35.47;;;21.53;;
13102;SDS011;52970;46.752;17.108;2022-11-20T05:43:16;31.20;;;20.47;;
13102;SDS011;52970;46.752;17.108;2022-11-20T05:45:41;33.60;;;21.37;;
13102;SDS011;52970;46.752;17.108;2022-11-20T05:48:06;37.27;;;22.23;;
13102;SDS011;52970;46.752;17.108;2022-11-20T05:50:31;36.63;;;22.70;;
13102;SDS011;52970;46.752;17.108;2022-11-20T05:53:00;35.53;;;21.17;;
13102;SDS011;52970;46.752;17.108;2022-11-20T05:55:26;31.67;;;21.07;;
13102;SDS011;52970;46.752;17.108;2022-11-20T05:57:52;37.63;;;22.43;;
13102;SDS011;52970;46.752;17.108;2022-11-20T06:00:17;34.73;;;20.80;;
13102;SDS011;52970;46.752;17.108;2022-11-20T06:02:43;34.73;;;20.83;;
13102;SDS011;52970;46.752;17.108;2022-11-20T06:05:08;38.53;;;24.13;;
13102;SDS011;52970;46.752;17.108;2022-11-20T06:07:33;37.10;;;23.80;;
13102;SDS011;52970;46.752;17.108;2022-11-20T06:09:58;33.37;;;21.77;;
13102;SDS011;52970;46.752;17.108;2022-11-20T06:12:24;41.13;;;27.37;;
13102;SDS011;52970;46.752;17.108;2022-11-20T06:14:49;72.43;;;45.93;;
13102;SDS011;52970;46.752;17.108;2022-11-20T06:17:14;152.00;;;85.30;;
13102;SDS011;52970;46.752;17.108;2022-11-20T06:19:39;154.43;;;83.10;;
13102;SDS011;52970;46.752;17.108;2022-11-20T06:22:04;58.63;;;38.10;;
13102;SDS011;52970;46.752;17.108;2022-11-20T06:24:30;64.97;;;39.73;;
13102;SDS011;52970;46.752;17.108;2022-11-20T06:26:55;44.60;;;28.67;;
13102;SDS011;52970;46.752;17.108;2022-11-20T06:29:20;53.13;;;31.70;;
13102;SDS011;52970;46.752;17.108;2022-11-20T06:31:45;49.77;;;30.17;;
13102;SDS011;52970;46.752;17.108;2022-11-20T06:34:11;43.33;;;28.13;;
13102;SDS011;52970;46.752;17.108;2022-11-20T06:36:36;46.30;;;28.50;;
13102;SDS011;52970;46.752;17.108;2022-11-20T06:39:02;57.83;;;38.10;;
13102;SDS011;52970;46.752;17.108;2022-11-20T06:41:27;51.17;;;31.10;;
13102;SDS011;52970;46.752;17.108;2022-11-20T06:43:53;57.43;;;33.30;;
13102;SDS011;52970;46.752;17.108;2022-11-20T06:46:18;68.30;;;41.23;;
13102;SDS011;52970;46.752;17.108;2022-11-20T06:48:44;56.83;;;35.53;;
13102;SDS011;52970;46.752;17.108;2022-11-20T06:51:09;64.13;;;39.70;;
13102;SDS011;52970;46.752;17.108;2022-11-20T06:53:35;62.63;;;38.43;;
13102;SDS011;52970;46.752;17.108;2022-11-20T06:56:00;54.53;;;35.43;;
13102;SDS011;52970;46.752;17.108;2022-11-20T06:58:26;43.30;;;29.07;;
13102;SDS011;52970;46.752;17.108;2022-11-20T07:00:52;48.53;;;31.23;;
13102;SDS011;52970;46.752;17.108;2022-11-20T07:03:17;156.97;;;100.83;;
13102;SDS011;52970;46.752;17.108;2022-11-20T07:05:42;69.10;;;46.27;;
13102;SDS011;52970;46.752;17.108;2022-11-20T07:08:08;69.13;;;49.03;;
13102;SDS011;52970;46.752;17.108;2022-11-20T07:10:33;59.80;;;39.80;;
13102;SDS011;52970;46.752;17.108;2022-11-20T07:12:58;77.97;;;51.13;;
13102;SDS011;52970;46.752;17.108;2022-11-20T07:15:24;64.20;;;41.87;;
13102;SDS011;52970;46.752;17.108;2022-11-20T07:17:50;63.47;;;39.20;;
13102;SDS011;52970;46.752;17.108;2022-11-20T07:20:15;67.30;;;40.70;;
13102;SDS011;52970;46.752;17.108;2022-11-20T07:22:40;67.53;;;37.93;;
13102;SDS011;52970;46.752;17.108;2022-11-20T07:25:06;66.60;;;41.07;;
13102;SDS011;52970;46.752;17.108;2022-11-20T07:27:32;65.97;;;39.57;;
13102;SDS011;52970;46.752;17.108;2022-11-20T07:29:57;61.03;;;35.17;;
13102;SDS011;52970;46.752;17.108;2022-11-20T07:32:23;38.20;;;25.13;;
13102;SDS011;52970;46.752;17.108;2022-11-20T07:34:48;39.13;;;25.23;;
13102;SDS011;52970;46.752;17.108;2022-11-20T07:37:13;36.73;;;23.70;;
13102;SDS011;52970;46.752;17.108;2022-11-20T07:39:39;43.00;;;26.70;;
13102;SDS011;52970;46.752;17.108;2022-11-20T07:42:05;40.17;;;25.23;;
13102;SDS011;52970;46.752;17.108;2022-11-20T07:44:30;39.27;;;24.53;;
13102;SDS011;52970;46.752;17.108;2022-11-20T07:46:56;38.97;;;24.13;;
13102;SDS011;52970;46.752;17.108;2022-11-20T07:49:21;38.43;;;25.07;;
13102;SDS011;52970;46.752;17.108;2022-11-20T07:51:46;41.40;;;25.60;;
13102;SDS011;52970;46.752;17.108;2022-11-20T07:54:11;150.93;;;59.40;;
13102;SDS011;52970;46.752;17.108;2022-11-20T07:56:37;195.27;;;88.27;;
13102;SDS011;52970;46.752;17.108;2022-11-20T07:59:02;101.90;;;55.83;;
13102;SDS011;52970;46.752;17.108;2022-11-20T08:01:28;64.73;;;40.03;;
13102;SDS011;52970;46.752;17.108;2022-11-20T08:03:53;59.37;;;39.07;;
13102;SDS011;52970;46.752;17.108;2022-11-20T08:06:18;66.53;;;40.87;;
13102;SDS011;52970;46.752;17.108;2022-11-20T08:08:44;64.97;;;40.80;;
13102;SDS011;52970;46.752;17.108;2022-11-20T08:11:10;50.67;;;32.43;;
13102;SDS011;52970;46.752;17.108;2022-11-20T08:13:54;45.60;;;29.30;;
13102;SDS011;52970;46.752;17.108;2022-11-20T08:16:41;47.30;;;30.03;;
13102;SDS011;52970;46.752;17.108;2022-11-20T08:19:06;43.07;;;28.57;;
13102;SDS011;52970;46.752;17.108;2022-11-20T08:21:32;40.83;;;26.13;;
13102;SDS011;52970;46.752;17.108;2022-11-20T08:23:58;39.37;;;24.63;;
13102;SDS011;52970;46.752;17.108;2022-11-20T08:26:24;36.20;;;22.77;;
13102;SDS011;52970;46.752;17.108;2022-11-20T08:28:49;40.10;;;24.33;;
13102;SDS011;52970;46.752;17.108;2022-11-20T08:31:14;35.23;;;23.13;;
13102;SDS011;52970;46.752;17.108;2022-11-20T08:33:40;37.53;;;25.83;;
13102;SDS011;52970;46.752;17.108;2022-11-20T08:36:05;51.60;;;31.93;;
13102;SDS011;52970;46.752;17.108;2022-11-20T08:38:31;44.83;;;28.33;;
13102;SDS011;52970;46.752;17.108;2022-11-20T08:40:57;40.13;;;24.10;;
13102;SDS011;52970;46.752;17.108;2022-11-20T08:43:40;37.50;;;23.97;;
13102;SDS011;52970;46.752;17.108;2022-11-20T08:46:05;40.63;;;25.73;;
13102;SDS011;52970;46.752;17.108;2022-11-20T08:48:31;38.20;;;24.90;;
13102;SDS011;52970;46.752;17.108;2022-11-20T08:50:57;38.33;;;24.10;;
13102;SDS011;52970;46.752;17.108;2022-11-20T08:53:22;37.73;;;23.17;;
13102;SDS011;52970;46.752;17.108;2022-11-20T08:55:48;36.37;;;23.57;;
13102;SDS011;52970;46.752;17.108;2022-11-20T08:58:13;40.57;;;25.50;;
13102;SDS011;52970;46.752;17.108;2022-11-20T09:00:38;35.23;;;23.13;;
13102;SDS011;52970;46.752;17.108;2022-11-20T09:03:03;43.00;;;26.63;;
13102;SDS011;52970;46.752;17.108;2022-11-20T09:05:29;42.53;;;28.53;;
13102;SDS011;52970;46.752;17.108;2022-11-20T09:07:58;42.97;;;28.10;;
13102;SDS011;52970;46.752;17.108;2022-11-20T09:10:23;40.37;;;25.90;;
13102;SDS011;52970;46.752;17.108;2022-11-20T09:12:49;43.13;;;27.00;;
13102;SDS011;52970;46.752;17.108;2022-11-20T09:15:14;39.47;;;25.80;;
13102;SDS011;52970;46.752;17.108;2022-11-20T09:17:39;35.90;;;24.83;;
13102;SDS011;52970;46.752;17.108;2022-11-20T09:20:05;44.93;;;28.70;;
13102;SDS011;52970;46.752;17.108;2022-11-20T09:22:30;41.20;;;25.93;;
13102;SDS011;52970;46.752;17.108;2022-11-20T09:24:55;39.20;;;25.10;;
13102;SDS011;52970;46.752;17.108;2022-11-20T09:27:20;44.47;;;28.07;;
13102;SDS011;52970;46.752;17.108;2022-11-20T09:29:46;48.50;;;30.33;;
13102;SDS011;52970;46.752;17.108;2022-11-20T09:32:11;42.47;;;27.50;;
13102;SDS011;52970;46.752;17.108;2022-11-20T09:34:37;45.93;;;27.13;;
13102;SDS011;52970;46.752;17.108;2022-11-20T09:37:02;45.33;;;31.90;;
13102;SDS011;52970;46.752;17.108;2022-11-20T09:39:27;51.37;;;32.80;;
13102;SDS011;52970;46.752;17.108;2022-11-20T09:41:56;49.07;;;30.83;;
13102;SDS011;52970;46.752;17.108;2022-11-20T09:53:46;44.37;;;26.50;;
13102;SDS011;52970;46.752;17.108;2022-11-20T09:55:35;43.77;;;27.17;;
13102;SDS011;52970;46.752;17.108;2022-11-20T09:58:00;45.60;;;29.13;;
13102;SDS011;52970;46.752;17.108;2022-11-20T10:00:27;43.53;;;25.93;;
13102;SDS011;52970;46.752;17.108;2022-11-20T10:03:54;41.53;;;26.40;;
13102;SDS011;52970;46.752;17.108;2022-11-20T10:05:47;41.47;;;24.63;;
13102;SDS011;52970;46.752;17.108;2022-11-20T10:08:27;41.23;;;25.47;;
13102;SDS011;52970;46.752;17.108;2022-11-20T10:16:11;41.03;;;27.17;;
13102;SDS011;52970;46.752;17.108;2022-11-20T10:21:08;41.80;;;26.33;;
13102;SDS011;52970;46.752;17.108;2022-11-20T10:23:41;43.37;;;27.43;;
13102;SDS011;52970;46.752;17.108;2022-11-20T10:31:06;45.03;;;28.37;;
13102;SDS011;52970;46.752;17.108;2022-11-20T10:33:34;49.17;;;29.30;;
13102;SDS011;52970;46.752;17.108;2022-11-20T10:36:14;47.20;;;29.50;;
13102;SDS011;52970;46.752;17.108;2022-11-20T10:38:44;45.37;;;27.87;;
13102;SDS011;52970;46.752;17.108;2022-11-20T10:41:15;47.50;;;29.00;;
13102;SDS011;52970;46.752;17.108;2022-11-20T10:46:30;51.60;;;29.97;;
13102;SDS011;52970;46.752;17.108;2022-11-20T10:48:57;44.77;;;28.23;;
13102;SDS011;52970;46.752;17.108;2022-11-20T10:56:42;47.50;;;27.77;;
13102;SDS011;52970;46.752;17.108;2022-11-20T11:01:52;49.67;;;29.77;;
13102;SDS011;52970;46.752;17.108;2022-11-20T11:07:05;43.50;;;26.93;;
13102;SDS011;52970;46.752;17.108;2022-11-20T11:09:33;47.57;;;29.37;;
13102;SDS011;52970;46.752;17.108;2022-11-20T11:11:59;45.20;;;28.27;;
13102;SDS011;52970;46.752;17.108;2022-11-20T11:14:24;44.23;;;26.63;;
13102;SDS011;52970;46.752;17.108;2022-11-20T11:16:54;42.37;;;24.67;;
13102;SDS011;52970;46.752;17.108;2022-11-20T11:19:19;44.20;;;27.33;;
13102;SDS011;52970;46.752;17.108;2022-11-20T11:21:49;42.53;;;26.27;;
13102;SDS011;52970;46.752;17.108;2022-11-20T11:24:22;42.97;;;26.03;;
13102;SDS011;52970;46.752;17.108;2022-11-20T11:27:10;45.23;;;26.83;;
13102;SDS011;52970;46.752;17.108;2022-11-20T11:29:35;44.17;;;26.83;;
13102;SDS011;52970;46.752;17.108;2022-11-20T11:34:29;47.03;;;28.80;;
13102;SDS011;52970;46.752;17.108;2022-11-20T11:36:58;42.60;;;27.67;;
13102;SDS011;52970;46.752;17.108;2022-11-20T11:39:23;47.10;;;28.07;;
13102;SDS011;52970;46.752;17.108;2022-11-20T11:41:49;44.97;;;28.43;;
13102;SDS011;52970;46.752;17.108;2022-11-20T11:44:19;45.33;;;28.20;;
13102;SDS011;52970;46.752;17.108;2022-11-20T11:47:04;46.07;;;28.40;;
13102;SDS011;52970;46.752;17.108;2022-11-20T11:49:31;46.73;;;29.20;;
13102;SDS011;52970;46.752;17.108;2022-11-20T11:51:58;48.77;;;32.30;;
13102;SDS011;52970;46.752;17.108;2022-11-20T11:54:43;69.70;;;41.17;;
13102;SDS011;52970;46.752;17.108;2022-11-20T11:57:13;54.40;;;33.47;;
13102;SDS011;52970;46.752;17.108;2022-11-20T11:59:43;51.70;;;32.40;;
13102;SDS011;52970;46.752;17.108;2022-11-20T12:02:23;51.73;;;30.07;;
13102;SDS011;52970;46.752;17.108;2022-11-20T12:04:52;51.20;;;30.67;;
13102;SDS011;52970;46.752;17.108;2022-11-20T12:07:35;48.80;;;30.43;;
13102;SDS011;52970;46.752;17.108;2022-11-20T12:10:03;47.80;;;29.60;;
13102;SDS011;52970;46.752;17.108;2022-11-20T12:12:43;48.40;;;29.53;;
13102;SDS011;52970;46.752;17.108;2022-11-20T12:15:13;47.03;;;28.57;;
13102;SDS011;52970;46.752;17.108;2022-11-20T12:17:40;46.40;;;28.87;;
13102;SDS011;52970;46.752;17.108;2022-11-20T12:20:15;44.23;;;27.83;;
13102;SDS011;52970;46.752;17.108;2022-11-20T12:22:46;45.00;;;27.63;;
13102;SDS011;52970;46.752;17.108;2022-11-20T12:27:47;45.93;;;27.43;;
13102;SDS011;52970;46.752;17.108;2022-11-20T12:30:16;41.40;;;25.07;;
13102;SDS011;52970;46.752;17.108;2022-11-20T12:32:48;40.70;;;24.60;;
13102;SDS011;52970;46.752;17.108;2022-11-20T12:42:57;34.87;;;22.43;;
13102;SDS011;52970;46.752;17.108;2022-11-20T12:46:04;35.97;;;21.50;;
13102;SDS011;52970;46.752;17.108;2022-11-20T12:51:31;41.33;;;26.03;;
13102;SDS011;52970;46.752;17.108;2022-11-20T13:06:46;40.58;;;23.90;;
13102;SDS011;52970;46.752;17.108;2022-11-20T13:09:12;39.33;;;24.33;;
13102;SDS011;52970;46.752;17.108;2022-11-20T13:19:13;38.27;;;23.67;;
13102;SDS011;52970;46.752;17.108;2022-11-20T13:21:40;39.50;;;24.47;;
13102;SDS011;52970;46.752;17.108;2022-11-20T13:24:06;37.70;;;23.40;;
13102;SDS011;52970;46.752;17.108;2022-11-20T13:26:32;38.03;;;23.20;;
13102;SDS011;52970;46.752;17.108;2022-11-20T13:29:03;37.17;;;23.47;;
13102;SDS011;52970;46.752;17.108;2022-11-20T13:31:33;35.88;;;21.58;;
13102;SDS011;52970;46.752;17.108;2022-11-20T13:33:59;35.90;;;22.77;;
13102;SDS011;52970;46.752;17.108;2022-11-20T13:36:27;35.20;;;21.57;;
13102;SDS011;52970;46.752;17.108;2022-11-20T13:38:54;34.83;;;22.17;;
13102;SDS011;52970;46.752;17.108;2022-11-20T13:41:38;36.10;;;23.03;;
13102;SDS011;52970;46.752;17.108;2022-11-20T13:44:06;31.33;;;19.43;;
13102;SDS011;52970;46.752;17.108;2022-11-20T13:49:06;33.43;;;21.43;;
13102;SDS011;52970;46.752;17.108;2022-11-20T13:51:36;32.40;;;21.00;;
13102;SDS011;52970;46.752;17.108;2022-11-20T14:01:56;31.03;;;20.00;;
13102;SDS011;52970;46.752;17.108;2022-11-20T14:04:43;31.58;;;20.65;;
13102;SDS011;52970;46.752;17.108;2022-11-20T14:07:08;33.30;;;20.77;;
13102;SDS011;52970;46.752;17.108;2022-11-20T14:09:34;31.87;;;20.57;;
13102;SDS011;52970;46.752;17.108;2022-11-20T14:12:00;30.73;;;20.37;;
13102;SDS011;52970;46.752;17.108;2022-11-20T14:14:27;33.33;;;20.90;;
13102;SDS011;52970;46.752;17.108;2022-11-20T14:17:03;34.78;;;21.02;;
13102;SDS011;52970;46.752;17.108;2022-11-20T14:19:29;33.33;;;20.70;;
13102;SDS011;52970;46.752;17.108;2022-11-20T14:22:08;33.85;;;21.08;;
13102;SDS011;52970;46.752;17.108;2022-11-20T14:24:34;34.60;;;22.15;;
13102;SDS011;52970;46.752;17.108;2022-11-20T14:26:59;36.90;;;22.43;;
13102;SDS011;52970;46.752;17.108;2022-11-20T14:29:37;32.03;;;21.13;;
13102;SDS011;52970;46.752;17.108;2022-11-20T14:32:03;33.77;;;21.57;;
13102;SDS011;52970;46.752;17.108;2022-11-20T14:34:30;32.40;;;21.20;;
13102;SDS011;52970;46.752;17.108;2022-11-20T14:36:57;34.43;;;22.13;;
13102;SDS011;52970;46.752;17.108;2022-11-20T14:39:25;41.30;;;25.27;;
13102;SDS011;52970;46.752;17.108;2022-11-20T14:41:52;39.87;;;24.50;;
13102;SDS011;52970;46.752;17.108;2022-11-20T14:44:17;32.23;;;21.33;;
13102;SDS011;52970;46.752;17.108;2022-11-20T14:46:42;33.42;;;21.50;;
13102;SDS011;52970;46.752;17.108;2022-11-20T14:49:08;33.40;;;21.23;;
13102;SDS011;52970;46.752;17.108;2022-11-20T14:51:36;32.42;;;20.95;;
13102;SDS011;52970;46.752;17.108;2022-11-20T14:54:18;34.63;;;21.33;;
13102;SDS011;52970;46.752;17.108;2022-11-20T14:56:53;33.03;;;20.67;;
13102;SDS011;52970;46.752;17.108;2022-11-20T14:59:22;33.15;;;21.52;;
13102;SDS011;52970;46.752;17.108;2022-11-20T15:02:23;31.17;;;20.77;;
13102;SDS011;52970;46.752;17.108;2022-11-20T15:04:48;34.58;;;21.23;;
13102;SDS011;52970;46.752;17.108;2022-11-20T15:07:24;29.40;;;19.60;;
13102;SDS011;52970;46.752;17.108;2022-11-20T15:10:00;31.83;;;20.27;;
13102;SDS011;52970;46.752;17.108;2022-11-20T15:12:25;31.30;;;19.67;;
13102;SDS011;52970;46.752;17.108;2022-11-20T15:14:53;36.67;;;22.80;;
13102;SDS011;52970;46.752;17.108;2022-11-20T15:17:18;33.00;;;20.57;;
13102;SDS011;52970;46.752;17.108;2022-11-20T15:19:43;38.07;;;23.03;;
13102;SDS011;52970;46.752;17.108;2022-11-20T15:22:11;34.57;;;21.37;;
13102;SDS011;52970;46.752;17.108;2022-11-20T15:24:41;35.83;;;22.10;;
13102;SDS011;52970;46.752;17.108;2022-11-20T15:27:07;33.97;;;20.30;;
13102;SDS011;52970;46.752;17.108;2022-11-20T15:29:32;33.97;;;21.50;;
13102;SDS011;52970;46.752;17.108;2022-11-20T15:31:59;32.13;;;20.50;;
13102;SDS011;52970;46.752;17.108;2022-11-20T15:34:26;33.73;;;20.37;;
13102;SDS011;52970;46.752;17.108;2022-11-20T15:36:51;29.53;;;20.43;;
13102;SDS011;52970;46.752;17.108;2022-11-20T15:39:17;31.07;;;19.63;;
13102;SDS011;52970;46.752;17.108;2022-11-20T15:41:42;31.80;;;18.63;;